sensor_id;sensor_type;location;lat;lon;timestamp;P1;durP1;ratioP1;P2;durP2;ratioP2
78875;SDS011;68253;52.506;5.486;2023-08-07T00:01:01;7.70;;;0.90;;
78875;SDS011;68253;52.506;5.486;2023-08-07T00:03:27;6.68;;;0.90;;
78875;SDS011;68253;52.506;5.486;2023-08-07T00:05:53;9.05;;;1.17;;
78875;SDS011;68253;52.506;5.486;2023-08-07T00:08:20;8.88;;;1.77;;
78875;SDS011;68253;52.506;5.486;2023-08-07T00:10:46;9.85;;;1.05;;
78875;SDS011;68253;52.506;5.486;2023-08-07T00:13:13;8.35;;;0.98;;
78875;SDS011;68253;52.506;5.486;2023-08-07T00:15:40;9.57;;;1.00;;
78875;SDS011;68253;52.506;5.486;2023-08-07T00:18:06;7.80;;;1.00;;
78875;SDS011;68253;52.506;5.486;2023-08-07T00:20:32;9.43;;;1.10;;
78875;SDS011;68253;52.506;5.486;2023-08-07T00:22:58;7.90;;;0.80;;
78875;SDS011;68253;52.506;5.486;2023-08-07T00:25:24;8.25;;;1.00;;
78875;SDS011;68253;52.506;5.486;2023-08-07T00:27:50;9.20;;;1.10;;
78875;SDS011;68253;52.506;5.486;2023-08-07T00:30:17;6.68;;;1.20;;
78875;SDS011;68253;52.506;5.486;2023-08-07T00:32:43;7.00;;;1.00;;
78875;SDS011;68253;52.506;5.486;2023-08-07T00:35:09;5.25;;;0.95;;
78875;SDS011;68253;52.506;5.486;2023-08-07T00:37:35;7.13;;;1.10;;
78875;SDS011;68253;52.506;5.486;2023-08-07T00:40:02;6.70;;;0.95;;
78875;SDS011;68253;52.506;5.486;2023-08-07T00:42:28;3.50;;;0.60;;
78875;SDS011;68253;52.506;5.486;2023-08-07T00:44:54;6.85;;;0.75;;
78875;SDS011;68253;52.506;5.486;2023-08-07T00:47:20;5.45;;;0.85;;
78875;SDS011;68253;52.506;5.486;2023-08-07T00:49:47;3.75;;;0.60;;
78875;SDS011;68253;52.506;5.486;2023-08-07T00:52:14;7.50;;;0.77;;
78875;SDS011;68253;52.506;5.486;2023-08-07T00:54:40;8.75;;;1.33;;
78875;SDS011;68253;52.506;5.486;2023-08-07T00:57:10;4.78;;;0.80;;
78875;SDS011;68253;52.506;5.486;2023-08-07T00:59:41;7.13;;;1.10;;
78875;SDS011;68253;52.506;5.486;2023-08-07T01:02:09;6.80;;;0.88;;
78875;SDS011;68253;52.506;5.486;2023-08-07T01:04:37;6.45;;;0.90;;
78875;SDS011;68253;52.506;5.486;2023-08-07T01:07:04;8.13;;;1.10;;
78875;SDS011;68253;52.506;5.486;2023-08-07T01:09:30;5.65;;;0.88;;
78875;SDS011;68253;52.506;5.486;2023-08-07T01:12:02;7.82;;;0.80;;
78875;SDS011;68253;52.506;5.486;2023-08-07T01:14:46;4.72;;;0.68;;
78875;SDS011;68253;52.506;5.486;2023-08-07T01:17:21;6.68;;;0.88;;
78875;SDS011;68253;52.506;5.486;2023-08-07T01:19:52;6.85;;;0.95;;
78875;SDS011;68253;52.506;5.486;2023-08-07T01:22:19;7.30;;;0.85;;
78875;SDS011;68253;52.506;5.486;2023-08-07T01:24:46;5.47;;;0.75;;
78875;SDS011;68253;52.506;5.486;2023-08-07T01:32:16;7.43;;;1.00;;
78875;SDS011;68253;52.506;5.486;2023-08-07T01:34:50;8.45;;;1.17;;
78875;SDS011;68253;52.506;5.486;2023-08-07T01:37:17;4.43;;;0.80;;
78875;SDS011;68253;52.506;5.486;2023-08-07T01:39:44;6.10;;;0.85;;
78875;SDS011;68253;52.506;5.486;2023-08-07T01:42:13;6.80;;;1.10;;
78875;SDS011;68253;52.506;5.486;2023-08-07T01:44:39;9.77;;;1.30;;
78875;SDS011;68253;52.506;5.486;2023-08-07T01:47:05;8.23;;;1.20;;
78875;SDS011;68253;52.506;5.486;2023-08-07T01:49:32;6.75;;;1.08;;
78875;SDS011;68253;52.506;5.486;2023-08-07T01:51:58;6.88;;;1.10;;
78875;SDS011;68253;52.506;5.486;2023-08-07T01:54:24;8.70;;;1.10;;
78875;SDS011;68253;52.506;5.486;2023-08-07T01:56:50;6.95;;;1.10;;
78875;SDS011;68253;52.506;5.486;2023-08-07T01:59:16;8.13;;;1.27;;
78875;SDS011;68253;52.506;5.486;2023-08-07T02:01:42;8.93;;;1.42;;
78875;SDS011;68253;52.506;5.486;2023-08-07T02:04:09;7.35;;;1.10;;
78875;SDS011;68253;52.506;5.486;2023-08-07T02:06:35;7.40;;;1.17;;
78875;SDS011;68253;52.506;5.486;2023-08-07T02:09:01;11.05;;;1.35;;
78875;SDS011;68253;52.506;5.486;2023-08-07T02:11:27;10.07;;;1.33;;
78875;SDS011;68253;52.506;5.486;2023-08-07T02:13:54;8.93;;;1.27;;
78875;SDS011;68253;52.506;5.486;2023-08-07T02:16:20;7.43;;;1.17;;
78875;SDS011;68253;52.506;5.486;2023-08-07T02:18:47;6.95;;;0.90;;
78875;SDS011;68253;52.506;5.486;2023-08-07T02:21:13;6.30;;;1.23;;
78875;SDS011;68253;52.506;5.486;2023-08-07T02:23:39;9.82;;;1.63;;
78875;SDS011;68253;52.506;5.486;2023-08-07T02:26:05;6.60;;;1.10;;
78875;SDS011;68253;52.506;5.486;2023-08-07T02:28:34;7.30;;;1.10;;
78875;SDS011;68253;52.506;5.486;2023-08-07T02:33:26;6.85;;;1.27;;
78875;SDS011;68253;52.506;5.486;2023-08-07T02:35:56;9.85;;;1.48;;
78875;SDS011;68253;52.506;5.486;2023-08-07T02:38:22;6.70;;;1.17;;
78875;SDS011;68253;52.506;5.486;2023-08-07T02:40:48;11.00;;;1.58;;
78875;SDS011;68253;52.506;5.486;2023-08-07T02:43:14;12.10;;;1.65;;
78875;SDS011;68253;52.506;5.486;2023-08-07T02:45:40;11.82;;;1.58;;
78875;SDS011;68253;52.506;5.486;2023-08-07T02:48:06;11.38;;;1.52;;
78875;SDS011;68253;52.506;5.486;2023-08-07T02:50:33;9.00;;;1.60;;
78875;SDS011;68253;52.506;5.486;2023-08-07T02:53:00;8.57;;;1.48;;
78875;SDS011;68253;52.506;5.486;2023-08-07T02:55:26;11.73;;;1.60;;
78875;SDS011;68253;52.506;5.486;2023-08-07T02:57:52;11.77;;;1.70;;
78875;SDS011;68253;52.506;5.486;2023-08-07T03:00:19;6.53;;;1.40;;
78875;SDS011;68253;52.506;5.486;2023-08-07T03:02:45;9.15;;;1.60;;
78875;SDS011;68253;52.506;5.486;2023-08-07T03:05:11;7.93;;;1.30;;
78875;SDS011;68253;52.506;5.486;2023-08-07T03:07:37;8.85;;;1.25;;
78875;SDS011;68253;52.506;5.486;2023-08-07T03:10:03;8.85;;;1.52;;
78875;SDS011;68253;52.506;5.486;2023-08-07T03:12:31;7.88;;;1.17;;
78875;SDS011;68253;52.506;5.486;2023-08-07T03:14:57;7.60;;;1.23;;
78875;SDS011;68253;52.506;5.486;2023-08-07T03:17:24;11.00;;;1.60;;
78875;SDS011;68253;52.506;5.486;2023-08-07T03:19:50;5.97;;;0.80;;
78875;SDS011;68253;52.506;5.486;2023-08-07T03:22:16;9.02;;;1.63;;
78875;SDS011;68253;52.506;5.486;2023-08-07T03:24:46;7.55;;;1.30;;
78875;SDS011;68253;52.506;5.486;2023-08-07T03:27:13;4.70;;;0.77;;
78875;SDS011;68253;52.506;5.486;2023-08-07T03:29:40;7.07;;;1.10;;
78875;SDS011;68253;52.506;5.486;2023-08-07T03:32:08;7.47;;;1.40;;
78875;SDS011;68253;52.506;5.486;2023-08-07T03:34:36;9.27;;;1.30;;
78875;SDS011;68253;52.506;5.486;2023-08-07T03:37:03;7.22;;;1.13;;
78875;SDS011;68253;52.506;5.486;2023-08-07T03:39:29;8.60;;;1.17;;
78875;SDS011;68253;52.506;5.486;2023-08-07T03:41:55;7.72;;;1.23;;
78875;SDS011;68253;52.506;5.486;2023-08-07T03:44:23;6.88;;;0.90;;
78875;SDS011;68253;52.506;5.486;2023-08-07T03:46:49;7.18;;;1.05;;
78875;SDS011;68253;52.506;5.486;2023-08-07T03:49:18;6.72;;;1.10;;
78875;SDS011;68253;52.506;5.486;2023-08-07T03:51:45;7.20;;;0.95;;
78875;SDS011;68253;52.506;5.486;2023-08-07T03:54:11;7.50;;;0.90;;
78875;SDS011;68253;52.506;5.486;2023-08-07T03:56:37;6.75;;;1.20;;
78875;SDS011;68253;52.506;5.486;2023-08-07T03:59:04;6.03;;;0.90;;
78875;SDS011;68253;52.506;5.486;2023-08-07T04:01:31;7.10;;;1.23;;
78875;SDS011;68253;52.506;5.486;2023-08-07T04:03:58;5.53;;;1.35;;
78875;SDS011;68253;52.506;5.486;2023-08-07T04:06:24;7.65;;;1.55;;
78875;SDS011;68253;52.506;5.486;2023-08-07T04:08:52;6.80;;;1.00;;
78875;SDS011;68253;52.506;5.486;2023-08-07T04:11:18;5.43;;;1.00;;
78875;SDS011;68253;52.506;5.486;2023-08-07T04:13:44;5.72;;;1.00;;
78875;SDS011;68253;52.506;5.486;2023-08-07T04:16:10;11.05;;;1.45;;
78875;SDS011;68253;52.506;5.486;2023-08-07T04:18:37;9.13;;;1.48;;
78875;SDS011;68253;52.506;5.486;2023-08-07T04:21:03;7.57;;;1.02;;
78875;SDS011;68253;52.506;5.486;2023-08-07T04:23:31;12.80;;;1.92;;
78875;SDS011;68253;52.506;5.486;2023-08-07T04:25:57;8.43;;;1.40;;
78875;SDS011;68253;52.506;5.486;2023-08-07T04:28:23;10.73;;;1.73;;
78875;SDS011;68253;52.506;5.486;2023-08-07T04:30:50;10.52;;;1.50;;
78875;SDS011;68253;52.506;5.486;2023-08-07T04:33:17;10.63;;;1.70;;
78875;SDS011;68253;52.506;5.486;2023-08-07T04:35:43;10.43;;;1.73;;
78875;SDS011;68253;52.506;5.486;2023-08-07T04:38:11;10.48;;;1.48;;
78875;SDS011;68253;52.506;5.486;2023-08-07T04:40:37;12.90;;;1.42;;
78875;SDS011;68253;52.506;5.486;2023-08-07T04:43:03;8.43;;;1.73;;
78875;SDS011;68253;52.506;5.486;2023-08-07T04:45:29;8.90;;;1.58;;
78875;SDS011;68253;52.506;5.486;2023-08-07T04:47:55;10.25;;;1.40;;
78875;SDS011;68253;52.506;5.486;2023-08-07T04:50:22;6.95;;;1.20;;
78875;SDS011;68253;52.506;5.486;2023-08-07T04:52:48;9.30;;;2.15;;
78875;SDS011;68253;52.506;5.486;2023-08-07T04:55:14;10.80;;;1.67;;
78875;SDS011;68253;52.506;5.486;2023-08-07T04:57:40;10.75;;;1.65;;
78875;SDS011;68253;52.506;5.486;2023-08-07T05:00:06;8.60;;;1.30;;
78875;SDS011;68253;52.506;5.486;2023-08-07T05:02:33;13.90;;;1.98;;
78875;SDS011;68253;52.506;5.486;2023-08-07T05:04:59;10.48;;;2.00;;
78875;SDS011;68253;52.506;5.486;2023-08-07T05:07:25;9.38;;;1.85;;
78875;SDS011;68253;52.506;5.486;2023-08-07T05:09:52;8.75;;;1.42;;
78875;SDS011;68253;52.506;5.486;2023-08-07T05:12:19;7.82;;;1.30;;
78875;SDS011;68253;52.506;5.486;2023-08-07T05:14:45;9.50;;;1.45;;
78875;SDS011;68253;52.506;5.486;2023-08-07T05:17:11;11.25;;;1.60;;
78875;SDS011;68253;52.506;5.486;2023-08-07T05:19:38;10.55;;;2.05;;
78875;SDS011;68253;52.506;5.486;2023-08-07T05:22:04;11.10;;;1.70;;
78875;SDS011;68253;52.506;5.486;2023-08-07T05:24:30;9.75;;;1.92;;
78875;SDS011;68253;52.506;5.486;2023-08-07T05:27:10;11.43;;;1.95;;
78875;SDS011;68253;52.506;5.486;2023-08-07T05:29:37;14.50;;;2.10;;
78875;SDS011;68253;52.506;5.486;2023-08-07T05:32:13;11.55;;;1.60;;
78875;SDS011;68253;52.506;5.486;2023-08-07T05:34:40;9.05;;;1.45;;
78875;SDS011;68253;52.506;5.486;2023-08-07T05:37:06;9.65;;;1.80;;
78875;SDS011;68253;52.506;5.486;2023-08-07T05:39:34;10.05;;;1.92;;
78875;SDS011;68253;52.506;5.486;2023-08-07T05:42:01;10.88;;;2.00;;
78875;SDS011;68253;52.506;5.486;2023-08-07T05:44:28;9.25;;;1.73;;
78875;SDS011;68253;52.506;5.486;2023-08-07T05:46:54;12.18;;;1.80;;
78875;SDS011;68253;52.506;5.486;2023-08-07T05:49:20;13.80;;;2.47;;
78875;SDS011;68253;52.506;5.486;2023-08-07T05:51:46;13.43;;;1.77;;
78875;SDS011;68253;52.506;5.486;2023-08-07T05:54:13;10.18;;;1.60;;
78875;SDS011;68253;52.506;5.486;2023-08-07T05:56:40;11.15;;;1.60;;
78875;SDS011;68253;52.506;5.486;2023-08-07T05:59:06;9.13;;;1.73;;
78875;SDS011;68253;52.506;5.486;2023-08-07T06:01:33;9.57;;;1.60;;
78875;SDS011;68253;52.506;5.486;2023-08-07T06:03:59;8.38;;;1.48;;
78875;SDS011;68253;52.506;5.486;2023-08-07T06:06:26;11.55;;;2.30;;
78875;SDS011;68253;52.506;5.486;2023-08-07T06:08:55;9.63;;;1.40;;
78875;SDS011;68253;52.506;5.486;2023-08-07T06:11:21;11.38;;;1.63;;
78875;SDS011;68253;52.506;5.486;2023-08-07T06:13:48;6.10;;;1.25;;
78875;SDS011;68253;52.506;5.486;2023-08-07T06:16:14;9.05;;;1.83;;
78875;SDS011;68253;52.506;5.486;2023-08-07T06:18:40;7.68;;;1.30;;
78875;SDS011;68253;52.506;5.486;2023-08-07T06:21:07;8.25;;;1.55;;
78875;SDS011;68253;52.506;5.486;2023-08-07T06:23:33;10.55;;;1.73;;
78875;SDS011;68253;52.506;5.486;2023-08-07T06:25:59;10.32;;;1.50;;
78875;SDS011;68253;52.506;5.486;2023-08-07T06:28:32;11.63;;;1.50;;
78875;SDS011;68253;52.506;5.486;2023-08-07T06:31:02;12.50;;;2.05;;
78875;SDS011;68253;52.506;5.486;2023-08-07T06:33:30;12.30;;;1.77;;
78875;SDS011;68253;52.506;5.486;2023-08-07T06:35:57;7.80;;;1.40;;
78875;SDS011;68253;52.506;5.486;2023-08-07T06:38:23;8.98;;;1.55;;
78875;SDS011;68253;52.506;5.486;2023-08-07T06:40:49;14.15;;;1.90;;
78875;SDS011;68253;52.506;5.486;2023-08-07T06:43:16;10.82;;;1.70;;
78875;SDS011;68253;52.506;5.486;2023-08-07T06:45:42;11.10;;;1.85;;
78875;SDS011;68253;52.506;5.486;2023-08-07T06:48:08;12.68;;;1.90;;
78875;SDS011;68253;52.506;5.486;2023-08-07T06:50:34;12.70;;;1.95;;
78875;SDS011;68253;52.506;5.486;2023-08-07T06:53:00;7.75;;;1.63;;
78875;SDS011;68253;52.506;5.486;2023-08-07T06:55:26;12.50;;;1.92;;
78875;SDS011;68253;52.506;5.486;2023-08-07T06:57:53;7.18;;;1.20;;
78875;SDS011;68253;52.506;5.486;2023-08-07T07:00:19;11.15;;;2.20;;
78875;SDS011;68253;52.506;5.486;2023-08-07T07:02:45;10.73;;;2.00;;
78875;SDS011;68253;52.506;5.486;2023-08-07T07:05:11;10.55;;;1.50;;
78875;SDS011;68253;52.506;5.486;2023-08-07T07:07:38;8.70;;;1.77;;
78875;SDS011;68253;52.506;5.486;2023-08-07T07:10:04;10.30;;;1.80;;
78875;SDS011;68253;52.506;5.486;2023-08-07T07:12:31;11.10;;;1.75;;
78875;SDS011;68253;52.506;5.486;2023-08-07T07:14:57;10.25;;;1.67;;
78875;SDS011;68253;52.506;5.486;2023-08-07T07:17:23;9.20;;;1.50;;
78875;SDS011;68253;52.506;5.486;2023-08-07T07:19:49;7.55;;;1.20;;
78875;SDS011;68253;52.506;5.486;2023-08-07T07:22:15;8.40;;;1.40;;
78875;SDS011;68253;52.506;5.486;2023-08-07T07:24:41;10.82;;;1.55;;
78875;SDS011;68253;52.506;5.486;2023-08-07T07:27:07;8.43;;;1.50;;
78875;SDS011;68253;52.506;5.486;2023-08-07T07:29:33;7.03;;;1.48;;
78875;SDS011;68253;52.506;5.486;2023-08-07T07:32:00;9.75;;;1.50;;
78875;SDS011;68253;52.506;5.486;2023-08-07T07:34:26;8.10;;;1.23;;
78875;SDS011;68253;52.506;5.486;2023-08-07T07:36:52;8.48;;;1.20;;
78875;SDS011;68253;52.506;5.486;2023-08-07T07:39:20;8.70;;;1.40;;
78875;SDS011;68253;52.506;5.486;2023-08-07T07:41:46;9.25;;;1.33;;
78875;SDS011;68253;52.506;5.486;2023-08-07T07:44:12;8.93;;;1.60;;
78875;SDS011;68253;52.506;5.486;2023-08-07T07:46:38;9.38;;;1.20;;
78875;SDS011;68253;52.506;5.486;2023-08-07T07:49:04;7.72;;;1.13;;
78875;SDS011;68253;52.506;5.486;2023-08-07T07:51:31;7.43;;;1.35;;
78875;SDS011;68253;52.506;5.486;2023-08-07T07:53:58;6.28;;;1.13;;
78875;SDS011;68253;52.506;5.486;2023-08-07T07:56:24;7.07;;;1.30;;
78875;SDS011;68253;52.506;5.486;2023-08-07T07:58:50;8.07;;;1.20;;
78875;SDS011;68253;52.506;5.486;2023-08-07T08:01:16;7.32;;;1.23;;
78875;SDS011;68253;52.506;5.486;2023-08-07T08:03:43;9.05;;;1.58;;
78875;SDS011;68253;52.506;5.486;2023-08-07T08:06:12;8.35;;;1.40;;
78875;SDS011;68253;52.506;5.486;2023-08-07T08:08:39;9.18;;;1.60;;
78875;SDS011;68253;52.506;5.486;2023-08-07T08:11:05;8.00;;;1.33;;
78875;SDS011;68253;52.506;5.486;2023-08-07T08:13:31;7.15;;;1.30;;
78875;SDS011;68253;52.506;5.486;2023-08-07T08:15:57;7.85;;;1.30;;
78875;SDS011;68253;52.506;5.486;2023-08-07T08:18:23;7.10;;;1.50;;
78875;SDS011;68253;52.506;5.486;2023-08-07T08:20:49;9.20;;;1.30;;
78875;SDS011;68253;52.506;5.486;2023-08-07T08:23:16;8.68;;;1.20;;
78875;SDS011;68253;52.506;5.486;2023-08-07T08:25:42;7.35;;;1.20;;
78875;SDS011;68253;52.506;5.486;2023-08-07T08:28:08;7.00;;;1.20;;
78875;SDS011;68253;52.506;5.486;2023-08-07T08:30:34;10.02;;;1.77;;
78875;SDS011;68253;52.506;5.486;2023-08-07T08:33:00;7.68;;;1.17;;
78875;SDS011;68253;52.506;5.486;2023-08-07T08:35:26;6.05;;;0.98;;
78875;SDS011;68253;52.506;5.486;2023-08-07T08:37:53;8.95;;;1.45;;
78875;SDS011;68253;52.506;5.486;2023-08-07T08:40:19;7.70;;;1.17;;
78875;SDS011;68253;52.506;5.486;2023-08-07T08:42:46;13.00;;;1.35;;
78875;SDS011;68253;52.506;5.486;2023-08-07T08:45:13;9.30;;;1.38;;
78875;SDS011;68253;52.506;5.486;2023-08-07T08:47:40;6.32;;;0.90;;
78875;SDS011;68253;52.506;5.486;2023-08-07T08:52:37;6.55;;;1.10;;
78875;SDS011;68253;52.506;5.486;2023-08-07T08:55:08;7.05;;;1.02;;
78875;SDS011;68253;52.506;5.486;2023-08-07T08:57:35;7.82;;;1.10;;
78875;SDS011;68253;52.506;5.486;2023-08-07T09:00:03;7.18;;;1.10;;
78875;SDS011;68253;52.506;5.486;2023-08-07T09:02:38;6.40;;;0.90;;
78875;SDS011;68253;52.506;5.486;2023-08-07T09:05:05;6.13;;;1.23;;
78875;SDS011;68253;52.506;5.486;2023-08-07T09:07:31;7.00;;;1.17;;
78875;SDS011;68253;52.506;5.486;2023-08-07T09:09:58;8.02;;;1.20;;
78875;SDS011;68253;52.506;5.486;2023-08-07T09:12:26;5.68;;;1.00;;
78875;SDS011;68253;52.506;5.486;2023-08-07T09:14:56;6.25;;;1.00;;
78875;SDS011;68253;52.506;5.486;2023-08-07T09:17:23;6.38;;;1.10;;
78875;SDS011;68253;52.506;5.486;2023-08-07T09:22:19;5.93;;;1.10;;
78875;SDS011;68253;52.506;5.486;2023-08-07T09:24:45;4.13;;;0.82;;
78875;SDS011;68253;52.506;5.486;2023-08-07T09:27:12;6.20;;;1.05;;
78875;SDS011;68253;52.506;5.486;2023-08-07T09:29:39;7.40;;;0.90;;
78875;SDS011;68253;52.506;5.486;2023-08-07T09:32:12;4.15;;;0.80;;
78875;SDS011;68253;52.506;5.486;2023-08-07T09:34:40;5.28;;;0.75;;
78875;SDS011;68253;52.506;5.486;2023-08-07T09:37:07;5.63;;;1.02;;
78875;SDS011;68253;52.506;5.486;2023-08-07T09:39:37;3.78;;;0.70;;
78875;SDS011;68253;52.506;5.486;2023-08-07T09:42:03;3.95;;;0.82;;
78875;SDS011;68253;52.506;5.486;2023-08-07T09:44:36;7.45;;;1.30;;
78875;SDS011;68253;52.506;5.486;2023-08-07T09:47:15;4.95;;;0.90;;
78875;SDS011;68253;52.506;5.486;2023-08-07T09:49:42;6.00;;;1.08;;
78875;SDS011;68253;52.506;5.486;2023-08-07T09:52:10;5.60;;;0.82;;
78875;SDS011;68253;52.506;5.486;2023-08-07T09:54:44;8.95;;;1.00;;
78875;SDS011;68253;52.506;5.486;2023-08-07T09:57:10;4.95;;;0.90;;
78875;SDS011;68253;52.506;5.486;2023-08-07T09:59:36;5.78;;;1.10;;
78875;SDS011;68253;52.506;5.486;2023-08-07T10:04:31;4.78;;;0.90;;
78875;SDS011;68253;52.506;5.486;2023-08-07T10:06:58;5.50;;;1.02;;
78875;SDS011;68253;52.506;5.486;2023-08-07T10:09:27;5.38;;;1.15;;
78875;SDS011;68253;52.506;5.486;2023-08-07T10:11:53;5.22;;;1.10;;
78875;SDS011;68253;52.506;5.486;2023-08-07T10:14:20;6.30;;;1.00;;
78875;SDS011;68253;52.506;5.486;2023-08-07T10:16:47;7.05;;;1.17;;
78875;SDS011;68253;52.506;5.486;2023-08-07T10:19:15;7.30;;;1.20;;
78875;SDS011;68253;52.506;5.486;2023-08-07T10:21:41;7.35;;;1.20;;
78875;SDS011;68253;52.506;5.486;2023-08-07T10:24:08;6.88;;;1.20;;
78875;SDS011;68253;52.506;5.486;2023-08-07T10:26:39;4.22;;;0.90;;
78875;SDS011;68253;52.506;5.486;2023-08-07T10:29:09;6.40;;;1.10;;
78875;SDS011;68253;52.506;5.486;2023-08-07T10:31:38;8.52;;;1.33;;
78875;SDS011;68253;52.506;5.486;2023-08-07T10:34:08;5.38;;;1.15;;
78875;SDS011;68253;52.506;5.486;2023-08-07T10:36:35;3.30;;;0.80;;
78875;SDS011;68253;52.506;5.486;2023-08-07T10:39:07;5.18;;;1.00;;
78875;SDS011;68253;52.506;5.486;2023-08-07T10:41:38;5.18;;;1.27;;
78875;SDS011;68253;52.506;5.486;2023-08-07T10:44:08;7.65;;;1.00;;
78875;SDS011;68253;52.506;5.486;2023-08-07T10:46:51;8.43;;;1.25;;
78875;SDS011;68253;52.506;5.486;2023-08-07T10:49:32;7.90;;;1.25;;
78875;SDS011;68253;52.506;5.486;2023-08-07T10:52:03;7.10;;;1.15;;
78875;SDS011;68253;52.506;5.486;2023-08-07T10:54:49;7.15;;;1.10;;
78875;SDS011;68253;52.506;5.486;2023-08-07T10:57:16;7.00;;;1.30;;
78875;SDS011;68253;52.506;5.486;2023-08-07T10:59:44;6.40;;;1.15;;
78875;SDS011;68253;52.506;5.486;2023-08-07T11:02:21;5.07;;;1.10;;
78875;SDS011;68253;52.506;5.486;2023-08-07T11:04:51;4.18;;;1.00;;
78875;SDS011;68253;52.506;5.486;2023-08-07T11:07:25;5.68;;;1.20;;
78875;SDS011;68253;52.506;5.486;2023-08-07T11:09:53;5.53;;;0.88;;
78875;SDS011;68253;52.506;5.486;2023-08-07T11:12:20;7.30;;;1.05;;
78875;SDS011;68253;52.506;5.486;2023-08-07T11:14:46;6.15;;;1.20;;
78875;SDS011;68253;52.506;5.486;2023-08-07T11:17:12;5.55;;;1.05;;
78875;SDS011;68253;52.506;5.486;2023-08-07T11:19:38;6.07;;;1.20;;
78875;SDS011;68253;52.506;5.486;2023-08-07T11:22:05;5.95;;;1.17;;
78875;SDS011;68253;52.506;5.486;2023-08-07T11:24:31;5.55;;;0.80;;
78875;SDS011;68253;52.506;5.486;2023-08-07T11:26:57;5.97;;;1.02;;
78875;SDS011;68253;52.506;5.486;2023-08-07T11:29:24;5.57;;;1.10;;
78875;SDS011;68253;52.506;5.486;2023-08-07T11:31:50;7.47;;;1.23;;
78875;SDS011;68253;52.506;5.486;2023-08-07T11:34:17;6.13;;;0.98;;
78875;SDS011;68253;52.506;5.486;2023-08-07T11:36:46;5.30;;;0.90;;
78875;SDS011;68253;52.506;5.486;2023-08-07T11:39:13;5.32;;;0.95;;
78875;SDS011;68253;52.506;5.486;2023-08-07T11:41:39;4.80;;;1.08;;
78875;SDS011;68253;52.506;5.486;2023-08-07T11:44:09;3.85;;;0.95;;
78875;SDS011;68253;52.506;5.486;2023-08-07T11:46:35;4.60;;;0.85;;
78875;SDS011;68253;52.506;5.486;2023-08-07T11:49:02;6.63;;;1.13;;
78875;SDS011;68253;52.506;5.486;2023-08-07T11:51:29;6.53;;;1.15;;
78875;SDS011;68253;52.506;5.486;2023-08-07T11:53:56;6.15;;;1.00;;
78875;SDS011;68253;52.506;5.486;2023-08-07T11:56:24;8.05;;;1.15;;
78875;SDS011;68253;52.506;5.486;2023-08-07T11:58:51;6.05;;;1.10;;
78875;SDS011;68253;52.506;5.486;2023-08-07T12:01:22;5.68;;;1.02;;
78875;SDS011;68253;52.506;5.486;2023-08-07T12:06:34;8.68;;;1.35;;
78875;SDS011;68253;52.506;5.486;2023-08-07T12:09:01;8.75;;;1.15;;
78875;SDS011;68253;52.506;5.486;2023-08-07T12:11:31;6.32;;;1.13;;
78875;SDS011;68253;52.506;5.486;2023-08-07T12:13:59;9.93;;;1.20;;
78875;SDS011;68253;52.506;5.486;2023-08-07T12:16:31;10.50;;;1.80;;
78875;SDS011;68253;52.506;5.486;2023-08-07T12:18:58;6.70;;;1.00;;
78875;SDS011;68253;52.506;5.486;2023-08-07T12:21:25;5.30;;;0.98;;
78875;SDS011;68253;52.506;5.486;2023-08-07T12:23:56;5.55;;;1.02;;
78875;SDS011;68253;52.506;5.486;2023-08-07T12:26:22;6.78;;;1.02;;
78875;SDS011;68253;52.506;5.486;2023-08-07T12:28:48;8.63;;;1.40;;
78875;SDS011;68253;52.506;5.486;2023-08-07T12:31:15;14.32;;;1.70;;
78875;SDS011;68253;52.506;5.486;2023-08-07T12:33:43;7.07;;;1.27;;
78875;SDS011;68253;52.506;5.486;2023-08-07T12:36:09;6.75;;;1.20;;
78875;SDS011;68253;52.506;5.486;2023-08-07T12:38:36;7.82;;;1.27;;
78875;SDS011;68253;52.506;5.486;2023-08-07T12:41:02;8.30;;;1.10;;
78875;SDS011;68253;52.506;5.486;2023-08-07T12:43:28;6.65;;;1.00;;
78875;SDS011;68253;52.506;5.486;2023-08-07T12:45:55;6.22;;;0.90;;
78875;SDS011;68253;52.506;5.486;2023-08-07T12:48:21;6.00;;;0.95;;
78875;SDS011;68253;52.506;5.486;2023-08-07T12:50:47;9.07;;;1.13;;
78875;SDS011;68253;52.506;5.486;2023-08-07T12:53:13;5.50;;;1.10;;
78875;SDS011;68253;52.506;5.486;2023-08-07T12:55:39;6.68;;;1.20;;
78875;SDS011;68253;52.506;5.486;2023-08-07T12:58:05;5.78;;;1.00;;
78875;SDS011;68253;52.506;5.486;2023-08-07T13:00:31;7.53;;;1.15;;
78875;SDS011;68253;52.506;5.486;2023-08-07T13:02:57;4.97;;;1.00;;
78875;SDS011;68253;52.506;5.486;2023-08-07T13:05:24;7.18;;;1.50;;
78875;SDS011;68253;52.506;5.486;2023-08-07T13:07:51;6.90;;;1.05;;
78875;SDS011;68253;52.506;5.486;2023-08-07T13:10:19;8.32;;;1.30;;
78875;SDS011;68253;52.506;5.486;2023-08-07T13:12:47;6.15;;;1.10;;
78875;SDS011;68253;52.506;5.486;2023-08-07T13:15:14;5.38;;;0.95;;
78875;SDS011;68253;52.506;5.486;2023-08-07T13:17:41;7.70;;;1.20;;
78875;SDS011;68253;52.506;5.486;2023-08-07T13:20:08;6.82;;;1.10;;
78875;SDS011;68253;52.506;5.486;2023-08-07T13:22:36;5.45;;;1.00;;
78875;SDS011;68253;52.506;5.486;2023-08-07T13:25:04;6.03;;;1.27;;
78875;SDS011;68253;52.506;5.486;2023-08-07T13:27:30;5.78;;;1.00;;
78875;SDS011;68253;52.506;5.486;2023-08-07T13:29:57;6.85;;;1.10;;
78875;SDS011;68253;52.506;5.486;2023-08-07T13:32:24;7.25;;;1.00;;
78875;SDS011;68253;52.506;5.486;2023-08-07T13:34:53;7.35;;;1.13;;
78875;SDS011;68253;52.506;5.486;2023-08-07T13:37:20;4.20;;;0.90;;
78875;SDS011;68253;52.506;5.486;2023-08-07T13:39:46;4.78;;;0.85;;
78875;SDS011;68253;52.506;5.486;2023-08-07T13:42:15;6.05;;;1.10;;
78875;SDS011;68253;52.506;5.486;2023-08-07T13:44:41;6.20;;;1.08;;
78875;SDS011;68253;52.506;5.486;2023-08-07T13:47:07;5.88;;;1.17;;
78875;SDS011;68253;52.506;5.486;2023-08-07T13:49:35;4.38;;;1.02;;
78875;SDS011;68253;52.506;5.486;2023-08-07T13:52:01;5.20;;;1.17;;
78875;SDS011;68253;52.506;5.486;2023-08-07T13:54:28;5.28;;;0.82;;
78875;SDS011;68253;52.506;5.486;2023-08-07T13:56:54;7.60;;;1.10;;
78875;SDS011;68253;52.506;5.486;2023-08-07T13:59:20;5.68;;;1.02;;
78875;SDS011;68253;52.506;5.486;2023-08-07T14:01:46;4.72;;;0.90;;
78875;SDS011;68253;52.506;5.486;2023-08-07T14:04:12;6.25;;;1.08;;
78875;SDS011;68253;52.506;5.486;2023-08-07T14:06:40;5.97;;;1.00;;
78875;SDS011;68253;52.506;5.486;2023-08-07T14:09:10;4.57;;;0.70;;
78875;SDS011;68253;52.506;5.486;2023-08-07T14:11:37;6.05;;;1.00;;
78875;SDS011;68253;52.506;5.486;2023-08-07T14:14:04;7.63;;;1.17;;
78875;SDS011;68253;52.506;5.486;2023-08-07T14:16:30;4.35;;;0.90;;
78875;SDS011;68253;52.506;5.486;2023-08-07T14:18:57;6.10;;;1.17;;
78875;SDS011;68253;52.506;5.486;2023-08-07T14:21:23;4.63;;;0.85;;
78875;SDS011;68253;52.506;5.486;2023-08-07T14:23:50;4.35;;;1.00;;
78875;SDS011;68253;52.506;5.486;2023-08-07T14:26:16;4.20;;;0.90;;
78875;SDS011;68253;52.506;5.486;2023-08-07T14:28:44;4.70;;;0.93;;
78875;SDS011;68253;52.506;5.486;2023-08-07T14:31:10;7.68;;;0.80;;
78875;SDS011;68253;52.506;5.486;2023-08-07T14:33:36;4.15;;;0.95;;
78875;SDS011;68253;52.506;5.486;2023-08-07T14:36:03;8.70;;;1.45;;
78875;SDS011;68253;52.506;5.486;2023-08-07T14:38:29;5.50;;;0.77;;
78875;SDS011;68253;52.506;5.486;2023-08-07T14:40:56;6.05;;;0.90;;
78875;SDS011;68253;52.506;5.486;2023-08-07T14:43:24;6.20;;;0.90;;
78875;SDS011;68253;52.506;5.486;2023-08-07T14:45:54;4.88;;;0.95;;
78875;SDS011;68253;52.506;5.486;2023-08-07T14:48:20;6.93;;;1.00;;
78875;SDS011;68253;52.506;5.486;2023-08-07T14:50:46;4.60;;;0.90;;
78875;SDS011;68253;52.506;5.486;2023-08-07T14:53:12;8.23;;;1.00;;
78875;SDS011;68253;52.506;5.486;2023-08-07T14:55:39;5.55;;;0.90;;
78875;SDS011;68253;52.506;5.486;2023-08-07T14:58:05;4.75;;;1.10;;
78875;SDS011;68253;52.506;5.486;2023-08-07T15:00:31;4.78;;;1.23;;
78875;SDS011;68253;52.506;5.486;2023-08-07T15:02:57;5.57;;;0.88;;